Aviation Digital Data Service (ADDS)

Output produced by TAFs form (1246 UTC 19 October 2017)
found at http://www.aviationweather.gov/adds/tafs/
 
KCAE 191156Z 00000KT 10SM CLR 06/06 A3028 RMK AO2 SLP253 T00610056 10083 20056 53005
KCAE 191129Z 1912/2012 VRB03KT P6SM SKC 
     FM191400 03005KT P6SM SCT250 
     FM192300 VRB03KT P6SM SKC